sensor_id;sensor_type;location;lat;lon;timestamp;temperature;humidity
17571;DHT22;8903;52.220;20.978;2024-01-25T00:00:19;6.80;99.90
17571;DHT22;8903;52.220;20.978;2024-01-25T00:02:48;6.70;99.90
17571;DHT22;8903;52.220;20.978;2024-01-25T00:05:14;6.70;99.90
17571;DHT22;8903;52.220;20.978;2024-01-25T00:07:50;6.70;99.90
17571;DHT22;8903;52.220;20.978;2024-01-25T00:10:19;6.70;99.90
17571;DHT22;8903;52.220;20.978;2024-01-25T00:12:47;6.70;99.90
17571;DHT22;8903;52.220;20.978;2024-01-25T00:15:14;6.60;99.90
17571;DHT22;8903;52.220;20.978;2024-01-25T00:17:41;6.60;99.90
17571;DHT22;8903;52.220;20.978;2024-01-25T00:20:10;6.60;99.90
17571;DHT22;8903;52.220;20.978;2024-01-25T00:22:41;6.60;99.90
17571;DHT22;8903;52.220;20.978;2024-01-25T00:25:07;6.60;99.90
17571;DHT22;8903;52.220;20.978;2024-01-25T00:27:33;6.60;99.90
17571;DHT22;8903;52.220;20.978;2024-01-25T00:29:59;6.60;99.90
17571;DHT22;8903;52.220;20.978;2024-01-25T00:32:25;6.60;99.90
17571;DHT22;8903;52.220;20.978;2024-01-25T00:34:51;6.60;99.90
17571;DHT22;8903;52.220;20.978;2024-01-25T00:37:18;6.50;99.90
17571;DHT22;8903;52.220;20.978;2024-01-25T00:39:44;6.50;99.90
17571;DHT22;8903;52.220;20.978;2024-01-25T00:42:12;6.50;99.90
17571;DHT22;8903;52.220;20.978;2024-01-25T00:44:38;6.40;99.90
17571;DHT22;8903;52.220;20.978;2024-01-25T00:47:07;6.30;99.90
17571;DHT22;8903;52.220;20.978;2024-01-25T00:49:33;6.30;99.90
17571;DHT22;8903;52.220;20.978;2024-01-25T00:52:00;6.30;99.90
17571;DHT22;8903;52.220;20.978;2024-01-25T00:54:27;6.20;99.90
17571;DHT22;8903;52.220;20.978;2024-01-25T00:56:53;6.20;99.90
17571;DHT22;8903;52.220;20.978;2024-01-25T00:59:31;6.10;99.90
17571;DHT22;8903;52.220;20.978;2024-01-25T01:01:58;6.10;99.90
17571;DHT22;8903;52.220;20.978;2024-01-25T01:04:25;6.00;99.90
17571;DHT22;8903;52.220;20.978;2024-01-25T01:06:56;6.00;99.90
17571;DHT22;8903;52.220;20.978;2024-01-25T01:09:22;5.90;99.90
17571;DHT22;8903;52.220;20.978;2024-01-25T01:11:48;5.90;99.90
17571;DHT22;8903;52.220;20.978;2024-01-25T01:14:18;5.80;99.90
17571;DHT22;8903;52.220;20.978;2024-01-25T01:16:44;5.80;99.90
17571;DHT22;8903;52.220;20.978;2024-01-25T01:19:13;5.80;99.90
17571;DHT22;8903;52.220;20.978;2024-01-25T01:21:39;5.80;99.90
17571;DHT22;8903;52.220;20.978;2024-01-25T01:24:12;5.80;99.90
17571;DHT22;8903;52.220;20.978;2024-01-25T01:26:37;5.80;99.90
17571;DHT22;8903;52.220;20.978;2024-01-25T01:29:03;5.80;99.90
17571;DHT22;8903;52.220;20.978;2024-01-25T01:31:29;5.70;99.90
17571;DHT22;8903;52.220;20.978;2024-01-25T01:33:55;5.80;99.90
17571;DHT22;8903;52.220;20.978;2024-01-25T01:36:26;5.80;99.90
17571;DHT22;8903;52.220;20.978;2024-01-25T01:38:52;5.80;99.90
17571;DHT22;8903;52.220;20.978;2024-01-25T01:41:18;5.80;99.90
17571;DHT22;8903;52.220;20.978;2024-01-25T01:43:44;5.80;99.90
17571;DHT22;8903;52.220;20.978;2024-01-25T01:46:35;5.80;99.90
17571;DHT22;8903;52.220;20.978;2024-01-25T01:49:03;5.80;99.90
17571;DHT22;8903;52.220;20.978;2024-01-25T01:51:41;5.80;99.90
17571;DHT22;8903;52.220;20.978;2024-01-25T01:54:15;5.70;99.90
17571;DHT22;8903;52.220;20.978;2024-01-25T01:56:41;5.70;99.90
17571;DHT22;8903;52.220;20.978;2024-01-25T01:59:09;5.70;99.90
17571;DHT22;8903;52.220;20.978;2024-01-25T02:01:36;5.70;99.90
17571;DHT22;8903;52.220;20.978;2024-01-25T02:04:04;5.70;99.90
17571;DHT22;8903;52.220;20.978;2024-01-25T02:06:30;5.70;99.90
17571;DHT22;8903;52.220;20.978;2024-01-25T02:08:56;5.70;99.90
17571;DHT22;8903;52.220;20.978;2024-01-25T02:11:27;5.70;99.90
17571;DHT22;8903;52.220;20.978;2024-01-25T02:13:53;5.80;99.90
17571;DHT22;8903;52.220;20.978;2024-01-25T02:16:19;5.70;99.90
17571;DHT22;8903;52.220;20.978;2024-01-25T02:18:46;5.80;99.90
17571;DHT22;8903;52.220;20.978;2024-01-25T02:21:12;5.80;99.90
17571;DHT22;8903;52.220;20.978;2024-01-25T02:23:38;5.80;99.90
17571;DHT22;8903;52.220;20.978;2024-01-25T02:26:04;5.80;99.90
17571;DHT22;8903;52.220;20.978;2024-01-25T02:28:30;5.90;99.90
17571;DHT22;8903;52.220;20.978;2024-01-25T02:30:56;5.80;99.90
17571;DHT22;8903;52.220;20.978;2024-01-25T02:33:22;5.80;99.90
17571;DHT22;8903;52.220;20.978;2024-01-25T02:35:48;5.80;99.90
17571;DHT22;8903;52.220;20.978;2024-01-25T02:38:14;5.70;99.90
17571;DHT22;8903;52.220;20.978;2024-01-25T02:40:40;5.70;99.90
17571;DHT22;8903;52.220;20.978;2024-01-25T02:43:05;5.60;99.90
17571;DHT22;8903;52.220;20.978;2024-01-25T02:45:31;5.70;99.90
17571;DHT22;8903;52.220;20.978;2024-01-25T02:48:00;5.70;99.90
17571;DHT22;8903;52.220;20.978;2024-01-25T02:50:27;5.60;99.90
17571;DHT22;8903;52.220;20.978;2024-01-25T02:52:53;5.60;99.90
17571;DHT22;8903;52.220;20.978;2024-01-25T02:55:21;5.50;99.90
17571;DHT22;8903;52.220;20.978;2024-01-25T02:57:47;5.60;99.90
17571;DHT22;8903;52.220;20.978;2024-01-25T03:00:13;5.50;99.90
17571;DHT22;8903;52.220;20.978;2024-01-25T03:02:42;5.50;99.90
17571;DHT22;8903;52.220;20.978;2024-01-25T03:05:11;5.50;99.90
17571;DHT22;8903;52.220;20.978;2024-01-25T03:07:37;5.50;99.90
17571;DHT22;8903;52.220;20.978;2024-01-25T03:10:03;5.50;99.90
17571;DHT22;8903;52.220;20.978;2024-01-25T03:12:29;5.50;99.90
17571;DHT22;8903;52.220;20.978;2024-01-25T03:14:54;5.40;99.90
17571;DHT22;8903;52.220;20.978;2024-01-25T03:17:20;5.40;99.90
17571;DHT22;8903;52.220;20.978;2024-01-25T03:19:46;5.40;99.90
17571;DHT22;8903;52.220;20.978;2024-01-25T03:22:13;5.40;99.90
17571;DHT22;8903;52.220;20.978;2024-01-25T03:24:38;5.40;99.90
17571;DHT22;8903;52.220;20.978;2024-01-25T03:27:04;5.30;99.90
17571;DHT22;8903;52.220;20.978;2024-01-25T03:29:30;5.30;99.90
17571;DHT22;8903;52.220;20.978;2024-01-25T03:31:56;5.30;99.90
17571;DHT22;8903;52.220;20.978;2024-01-25T03:34:22;5.30;99.90
17571;DHT22;8903;52.220;20.978;2024-01-25T03:36:48;5.30;99.90
17571;DHT22;8903;52.220;20.978;2024-01-25T03:39:17;5.30;99.90
17571;DHT22;8903;52.220;20.978;2024-01-25T03:41:43;5.30;99.90
17571;DHT22;8903;52.220;20.978;2024-01-25T03:44:09;5.30;99.90
17571;DHT22;8903;52.220;20.978;2024-01-25T03:46:34;5.30;99.90
17571;DHT22;8903;52.220;20.978;2024-01-25T03:49:03;5.30;99.90
17571;DHT22;8903;52.220;20.978;2024-01-25T03:51:29;5.20;99.90
17571;DHT22;8903;52.220;20.978;2024-01-25T03:53:55;5.30;99.90
17571;DHT22;8903;52.220;20.978;2024-01-25T03:56:23;5.20;99.90
17571;DHT22;8903;52.220;20.978;2024-01-25T03:58:50;5.20;99.90
17571;DHT22;8903;52.220;20.978;2024-01-25T04:01:15;5.20;99.90
17571;DHT22;8903;52.220;20.978;2024-01-25T04:03:41;5.30;99.90
17571;DHT22;8903;52.220;20.978;2024-01-25T04:06:07;5.20;99.90
17571;DHT22;8903;52.220;20.978;2024-01-25T04:08:33;5.30;99.90
17571;DHT22;8903;52.220;20.978;2024-01-25T04:10:58;5.30;99.90
17571;DHT22;8903;52.220;20.978;2024-01-25T04:13:25;5.20;99.90
17571;DHT22;8903;52.220;20.978;2024-01-25T04:15:50;5.30;99.90
17571;DHT22;8903;52.220;20.978;2024-01-25T04:18:16;5.20;99.90
17571;DHT22;8903;52.220;20.978;2024-01-25T04:20:43;5.20;99.90
17571;DHT22;8903;52.220;20.978;2024-01-25T04:23:09;5.20;99.90
17571;DHT22;8903;52.220;20.978;2024-01-25T04:25:34;5.20;99.90
17571;DHT22;8903;52.220;20.978;2024-01-25T04:28:01;5.20;99.90
17571;DHT22;8903;52.220;20.978;2024-01-25T04:30:27;5.20;99.90
17571;DHT22;8903;52.220;20.978;2024-01-25T04:32:53;5.20;99.90
17571;DHT22;8903;52.220;20.978;2024-01-25T04:35:19;5.20;99.90
17571;DHT22;8903;52.220;20.978;2024-01-25T04:37:45;5.20;99.90
17571;DHT22;8903;52.220;20.978;2024-01-25T04:40:11;5.20;99.90
17571;DHT22;8903;52.220;20.978;2024-01-25T04:42:37;5.20;99.90
17571;DHT22;8903;52.220;20.978;2024-01-25T04:45:03;5.20;99.90
17571;DHT22;8903;52.220;20.978;2024-01-25T04:47:29;5.20;99.90
17571;DHT22;8903;52.220;20.978;2024-01-25T04:49:54;5.20;99.90
17571;DHT22;8903;52.220;20.978;2024-01-25T04:52:20;5.20;99.90
17571;DHT22;8903;52.220;20.978;2024-01-25T04:54:46;5.20;99.90
17571;DHT22;8903;52.220;20.978;2024-01-25T04:57:11;5.20;99.90
17571;DHT22;8903;52.220;20.978;2024-01-25T04:59:37;5.20;99.90
17571;DHT22;8903;52.220;20.978;2024-01-25T05:02:03;5.20;99.90
17571;DHT22;8903;52.220;20.978;2024-01-25T05:04:29;5.20;99.90
17571;DHT22;8903;52.220;20.978;2024-01-25T05:06:56;5.20;99.90
17571;DHT22;8903;52.220;20.978;2024-01-25T05:09:21;5.20;99.90
17571;DHT22;8903;52.220;20.978;2024-01-25T05:11:47;5.20;99.90
17571;DHT22;8903;52.220;20.978;2024-01-25T05:14:13;5.20;99.90
17571;DHT22;8903;52.220;20.978;2024-01-25T05:16:39;5.20;99.90
17571;DHT22;8903;52.220;20.978;2024-01-25T05:19:07;5.30;99.90
17571;DHT22;8903;52.220;20.978;2024-01-25T05:21:36;5.30;99.90
17571;DHT22;8903;52.220;20.978;2024-01-25T05:24:02;5.30;99.90
17571;DHT22;8903;52.220;20.978;2024-01-25T05:26:28;5.30;99.90
17571;DHT22;8903;52.220;20.978;2024-01-25T05:28:54;5.30;99.90
17571;DHT22;8903;52.220;20.978;2024-01-25T05:31:19;5.40;99.90
17571;DHT22;8903;52.220;20.978;2024-01-25T05:33:45;5.40;99.90
17571;DHT22;8903;52.220;20.978;2024-01-25T05:36:11;5.40;99.90
17571;DHT22;8903;52.220;20.978;2024-01-25T05:38:37;5.40;99.90
17571;DHT22;8903;52.220;20.978;2024-01-25T05:41:03;5.40;99.90
17571;DHT22;8903;52.220;20.978;2024-01-25T05:43:29;5.40;99.90
17571;DHT22;8903;52.220;20.978;2024-01-25T05:45:54;5.40;99.90
17571;DHT22;8903;52.220;20.978;2024-01-25T05:48:20;5.50;99.90
17571;DHT22;8903;52.220;20.978;2024-01-25T05:50:46;5.50;99.90
17571;DHT22;8903;52.220;20.978;2024-01-25T05:53:13;5.50;99.90
17571;DHT22;8903;52.220;20.978;2024-01-25T05:55:38;5.50;99.90
17571;DHT22;8903;52.220;20.978;2024-01-25T05:58:04;5.50;99.90
17571;DHT22;8903;52.220;20.978;2024-01-25T06:00:30;5.50;99.90
17571;DHT22;8903;52.220;20.978;2024-01-25T06:02:56;5.60;99.90
17571;DHT22;8903;52.220;20.978;2024-01-25T06:05:21;5.50;99.90
17571;DHT22;8903;52.220;20.978;2024-01-25T06:07:47;5.60;99.90
17571;DHT22;8903;52.220;20.978;2024-01-25T06:10:15;5.60;99.90
17571;DHT22;8903;52.220;20.978;2024-01-25T06:12:40;5.60;99.90
17571;DHT22;8903;52.220;20.978;2024-01-25T06:15:07;5.60;99.90
17571;DHT22;8903;52.220;20.978;2024-01-25T06:17:32;5.60;99.90
17571;DHT22;8903;52.220;20.978;2024-01-25T06:19:58;5.60;99.90
17571;DHT22;8903;52.220;20.978;2024-01-25T06:22:24;5.60;99.90
17571;DHT22;8903;52.220;20.978;2024-01-25T06:24:49;5.60;99.90
17571;DHT22;8903;52.220;20.978;2024-01-25T06:27:15;5.60;99.90
17571;DHT22;8903;52.220;20.978;2024-01-25T06:29:41;5.60;99.90
17571;DHT22;8903;52.220;20.978;2024-01-25T06:32:06;5.60;99.90
17571;DHT22;8903;52.220;20.978;2024-01-25T06:34:32;5.50;99.90
17571;DHT22;8903;52.220;20.978;2024-01-25T06:36:58;5.50;99.90
17571;DHT22;8903;52.220;20.978;2024-01-25T06:39:24;5.60;99.90
17571;DHT22;8903;52.220;20.978;2024-01-25T06:41:49;5.60;99.90
17571;DHT22;8903;52.220;20.978;2024-01-25T06:44:15;5.60;99.90
17571;DHT22;8903;52.220;20.978;2024-01-25T06:46:42;5.60;99.90
17571;DHT22;8903;52.220;20.978;2024-01-25T06:49:08;5.60;99.90
17571;DHT22;8903;52.220;20.978;2024-01-25T06:51:33;5.60;99.90
17571;DHT22;8903;52.220;20.978;2024-01-25T06:53:59;5.50;99.90
17571;DHT22;8903;52.220;20.978;2024-01-25T06:56:25;5.50;99.90
17571;DHT22;8903;52.220;20.978;2024-01-25T06:58:51;5.40;99.90
17571;DHT22;8903;52.220;20.978;2024-01-25T07:01:22;5.40;99.90
17571;DHT22;8903;52.220;20.978;2024-01-25T07:03:48;5.30;99.90
17571;DHT22;8903;52.220;20.978;2024-01-25T07:06:19;5.30;99.90
17571;DHT22;8903;52.220;20.978;2024-01-25T07:08:46;5.20;99.90
17571;DHT22;8903;52.220;20.978;2024-01-25T07:11:12;5.20;99.90
17571;DHT22;8903;52.220;20.978;2024-01-25T07:13:38;5.10;99.90
17571;DHT22;8903;52.220;20.978;2024-01-25T07:16:04;5.10;99.90
17571;DHT22;8903;52.220;20.978;2024-01-25T07:18:30;5.10;99.90
17571;DHT22;8903;52.220;20.978;2024-01-25T07:20:55;5.10;99.90
17571;DHT22;8903;52.220;20.978;2024-01-25T07:23:21;5.10;99.90
17571;DHT22;8903;52.220;20.978;2024-01-25T07:25:47;5.00;99.90
17571;DHT22;8903;52.220;20.978;2024-01-25T07:28:13;5.00;99.90
17571;DHT22;8903;52.220;20.978;2024-01-25T07:30:39;5.00;99.90
17571;DHT22;8903;52.220;20.978;2024-01-25T07:33:05;5.00;99.90
17571;DHT22;8903;52.220;20.978;2024-01-25T07:35:31;5.00;99.90
17571;DHT22;8903;52.220;20.978;2024-01-25T07:37:57;5.00;99.90
17571;DHT22;8903;52.220;20.978;2024-01-25T07:40:23;5.00;99.90
17571;DHT22;8903;52.220;20.978;2024-01-25T07:42:48;5.00;99.90
17571;DHT22;8903;52.220;20.978;2024-01-25T07:45:14;5.00;99.90
17571;DHT22;8903;52.220;20.978;2024-01-25T07:47:41;5.00;99.90
17571;DHT22;8903;52.220;20.978;2024-01-25T07:50:07;5.00;99.90
17571;DHT22;8903;52.220;20.978;2024-01-25T07:52:36;5.00;99.90
17571;DHT22;8903;52.220;20.978;2024-01-25T07:55:05;4.90;99.90
17571;DHT22;8903;52.220;20.978;2024-01-25T07:57:30;4.90;99.90
17571;DHT22;8903;52.220;20.978;2024-01-25T07:59:56;5.00;99.90
17571;DHT22;8903;52.220;20.978;2024-01-25T08:02:22;5.00;99.90
17571;DHT22;8903;52.220;20.978;2024-01-25T08:04:48;5.00;99.90
17571;DHT22;8903;52.220;20.978;2024-01-25T08:07:13;5.00;99.90
17571;DHT22;8903;52.220;20.978;2024-01-25T08:09:39;5.00;99.90
17571;DHT22;8903;52.220;20.978;2024-01-25T08:12:05;5.00;99.90
17571;DHT22;8903;52.220;20.978;2024-01-25T08:14:31;5.00;99.90
17571;DHT22;8903;52.220;20.978;2024-01-25T08:16:57;5.00;99.90
17571;DHT22;8903;52.220;20.978;2024-01-25T08:19:23;5.10;99.90
17571;DHT22;8903;52.220;20.978;2024-01-25T08:21:48;5.00;99.90
17571;DHT22;8903;52.220;20.978;2024-01-25T08:24:15;5.00;99.90
17571;DHT22;8903;52.220;20.978;2024-01-25T08:26:40;5.10;99.90
17571;DHT22;8903;52.220;20.978;2024-01-25T08:29:06;5.10;99.90
17571;DHT22;8903;52.220;20.978;2024-01-25T08:31:32;5.10;99.90
17571;DHT22;8903;52.220;20.978;2024-01-25T08:33:58;5.10;99.90
17571;DHT22;8903;52.220;20.978;2024-01-25T08:36:24;5.10;99.90
17571;DHT22;8903;52.220;20.978;2024-01-25T08:38:50;5.10;99.90
17571;DHT22;8903;52.220;20.978;2024-01-25T08:41:16;5.10;99.90
17571;DHT22;8903;52.220;20.978;2024-01-25T08:43:42;5.20;99.90
17571;DHT22;8903;52.220;20.978;2024-01-25T08:46:08;5.10;99.90
17571;DHT22;8903;52.220;20.978;2024-01-25T08:48:34;5.10;99.90
17571;DHT22;8903;52.220;20.978;2024-01-25T08:51:00;5.10;99.90
17571;DHT22;8903;52.220;20.978;2024-01-25T08:53:25;5.10;99.90
17571;DHT22;8903;52.220;20.978;2024-01-25T08:55:54;5.10;99.90
17571;DHT22;8903;52.220;20.978;2024-01-25T08:58:21;5.10;99.90
17571;DHT22;8903;52.220;20.978;2024-01-25T09:00:47;5.10;99.90
17571;DHT22;8903;52.220;20.978;2024-01-25T09:03:12;5.10;99.90
17571;DHT22;8903;52.220;20.978;2024-01-25T09:05:38;5.10;99.90
17571;DHT22;8903;52.220;20.978;2024-01-25T09:08:11;5.10;99.90
17571;DHT22;8903;52.220;20.978;2024-01-25T09:10:38;5.10;99.90
17571;DHT22;8903;52.220;20.978;2024-01-25T09:13:04;5.10;99.90
17571;DHT22;8903;52.220;20.978;2024-01-25T09:15:30;5.10;99.90
17571;DHT22;8903;52.220;20.978;2024-01-25T09:17:55;5.10;99.90
17571;DHT22;8903;52.220;20.978;2024-01-25T09:20:21;5.10;99.90
17571;DHT22;8903;52.220;20.978;2024-01-25T09:22:47;5.10;99.90
17571;DHT22;8903;52.220;20.978;2024-01-25T09:25:12;5.10;99.90
17571;DHT22;8903;52.220;20.978;2024-01-25T09:27:38;5.10;99.90
17571;DHT22;8903;52.220;20.978;2024-01-25T09:30:05;5.20;99.90
17571;DHT22;8903;52.220;20.978;2024-01-25T09:32:31;5.10;99.90
17571;DHT22;8903;52.220;20.978;2024-01-25T09:34:57;5.10;99.90
17571;DHT22;8903;52.220;20.978;2024-01-25T09:37:23;5.10;99.90
17571;DHT22;8903;52.220;20.978;2024-01-25T09:39:52;5.20;99.90
17571;DHT22;8903;52.220;20.978;2024-01-25T09:42:18;5.20;99.90
17571;DHT22;8903;52.220;20.978;2024-01-25T09:44:45;5.20;99.90
17571;DHT22;8903;52.220;20.978;2024-01-25T09:47:11;5.20;99.90
17571;DHT22;8903;52.220;20.978;2024-01-25T09:49:37;5.20;99.90
17571;DHT22;8903;52.220;20.978;2024-01-25T09:52:04;5.30;99.90
17571;DHT22;8903;52.220;20.978;2024-01-25T09:54:34;5.20;99.90
17571;DHT22;8903;52.220;20.978;2024-01-25T09:57:05;5.30;99.90
17571;DHT22;8903;52.220;20.978;2024-01-25T09:59:32;5.30;99.90
17571;DHT22;8903;52.220;20.978;2024-01-25T10:01:58;5.30;99.90
17571;DHT22;8903;52.220;20.978;2024-01-25T10:04:24;5.30;99.90
17571;DHT22;8903;52.220;20.978;2024-01-25T10:06:50;5.30;99.90
17571;DHT22;8903;52.220;20.978;2024-01-25T10:09:18;5.30;99.90
17571;DHT22;8903;52.220;20.978;2024-01-25T10:11:44;5.40;99.90
17571;DHT22;8903;52.220;20.978;2024-01-25T10:14:09;5.30;99.90
17571;DHT22;8903;52.220;20.978;2024-01-25T10:16:35;5.40;99.90
17571;DHT22;8903;52.220;20.978;2024-01-25T10:19:01;5.40;99.90
17571;DHT22;8903;52.220;20.978;2024-01-25T10:21:31;5.40;99.90
17571;DHT22;8903;52.220;20.978;2024-01-25T10:23:57;5.40;99.90
17571;DHT22;8903;52.220;20.978;2024-01-25T10:26:27;5.40;99.90
17571;DHT22;8903;52.220;20.978;2024-01-25T10:28:55;5.40;99.90
17571;DHT22;8903;52.220;20.978;2024-01-25T10:31:24;5.40;99.90
17571;DHT22;8903;52.220;20.978;2024-01-25T10:33:53;5.40;99.90
17571;DHT22;8903;52.220;20.978;2024-01-25T10:36:22;5.40;99.90
17571;DHT22;8903;52.220;20.978;2024-01-25T10:38:49;5.40;99.90
17571;DHT22;8903;52.220;20.978;2024-01-25T10:41:19;5.40;99.90
17571;DHT22;8903;52.220;20.978;2024-01-25T10:43:45;5.40;99.90
17571;DHT22;8903;52.220;20.978;2024-01-25T10:46:11;5.40;99.90
17571;DHT22;8903;52.220;20.978;2024-01-25T10:48:37;5.50;99.90
17571;DHT22;8903;52.220;20.978;2024-01-25T10:51:04;5.50;99.90
17571;DHT22;8903;52.220;20.978;2024-01-25T10:53:34;5.50;99.90
17571;DHT22;8903;52.220;20.978;2024-01-25T10:56:01;5.50;99.90
17571;DHT22;8903;52.220;20.978;2024-01-25T10:58:40;5.60;99.90
17571;DHT22;8903;52.220;20.978;2024-01-25T11:01:10;5.60;99.90
17571;DHT22;8903;52.220;20.978;2024-01-25T11:03:40;5.60;99.90
17571;DHT22;8903;52.220;20.978;2024-01-25T11:06:10;5.60;99.90
17571;DHT22;8903;52.220;20.978;2024-01-25T11:08:40;5.60;99.90
17571;DHT22;8903;52.220;20.978;2024-01-25T11:11:10;5.70;99.90
17571;DHT22;8903;52.220;20.978;2024-01-25T11:13:39;5.80;99.90
17571;DHT22;8903;52.220;20.978;2024-01-25T11:16:21;5.80;99.90
17571;DHT22;8903;52.220;20.978;2024-01-25T11:19:04;5.80;99.90
17571;DHT22;8903;52.220;20.978;2024-01-25T11:21:41;5.80;99.90
17571;DHT22;8903;52.220;20.978;2024-01-25T11:24:21;5.80;99.90
17571;DHT22;8903;52.220;20.978;2024-01-25T11:26:48;5.90;99.90
17571;DHT22;8903;52.220;20.978;2024-01-25T11:29:18;5.90;99.90
17571;DHT22;8903;52.220;20.978;2024-01-25T11:31:47;5.90;99.90
17571;DHT22;8903;52.220;20.978;2024-01-25T11:34:13;5.90;99.90
17571;DHT22;8903;52.220;20.978;2024-01-25T11:36:44;5.90;99.90
17571;DHT22;8903;52.220;20.978;2024-01-25T11:39:15;5.90;99.90
17571;DHT22;8903;52.220;20.978;2024-01-25T11:41:43;5.90;99.90
17571;DHT22;8903;52.220;20.978;2024-01-25T11:44:19;6.00;99.90
17571;DHT22;8903;52.220;20.978;2024-01-25T11:46:44;6.00;99.90
17571;DHT22;8903;52.220;20.978;2024-01-25T11:49:10;6.00;99.90
17571;DHT22;8903;52.220;20.978;2024-01-25T11:51:36;6.00;99.90
17571;DHT22;8903;52.220;20.978;2024-01-25T11:54:02;6.00;99.90
17571;DHT22;8903;52.220;20.978;2024-01-25T11:56:33;6.00;99.90
17571;DHT22;8903;52.220;20.978;2024-01-25T11:59:01;6.10;99.90
17571;DHT22;8903;52.220;20.978;2024-01-25T12:01:34;6.10;99.90
17571;DHT22;8903;52.220;20.978;2024-01-25T12:04:04;6.10;99.90
17571;DHT22;8903;52.220;20.978;2024-01-25T12:06:30;6.10;99.90
17571;DHT22;8903;52.220;20.978;2024-01-25T12:09:06;6.10;99.90
17571;DHT22;8903;52.220;20.978;2024-01-25T12:11:33;6.00;99.90
17571;DHT22;8903;52.220;20.978;2024-01-25T12:14:00;6.00;99.90
17571;DHT22;8903;52.220;20.978;2024-01-25T12:16:29;5.90;99.90
17571;DHT22;8903;52.220;20.978;2024-01-25T12:18:55;5.80;99.90
17571;DHT22;8903;52.220;20.978;2024-01-25T12:21:21;5.70;99.90
17571;DHT22;8903;52.220;20.978;2024-01-25T12:23:47;5.70;99.90
17571;DHT22;8903;52.220;20.978;2024-01-25T12:26:15;5.60;99.90
17571;DHT22;8903;52.220;20.978;2024-01-25T12:28:42;5.60;99.90
17571;DHT22;8903;52.220;20.978;2024-01-25T12:31:08;5.50;99.90
17571;DHT22;8903;52.220;20.978;2024-01-25T12:33:35;5.50;99.90
17571;DHT22;8903;52.220;20.978;2024-01-25T12:36:07;5.50;99.90
17571;DHT22;8903;52.220;20.978;2024-01-25T12:38:33;5.50;99.90
17571;DHT22;8903;52.220;20.978;2024-01-25T12:41:00;5.40;99.90
17571;DHT22;8903;52.220;20.978;2024-01-25T12:43:26;5.30;99.90
17571;DHT22;8903;52.220;20.978;2024-01-25T12:45:52;5.20;99.90
17571;DHT22;8903;52.220;20.978;2024-01-25T12:48:18;5.10;99.90
17571;DHT22;8903;52.220;20.978;2024-01-25T12:50:47;4.90;99.90
17571;DHT22;8903;52.220;20.978;2024-01-25T12:53:17;4.80;99.90
17571;DHT22;8903;52.220;20.978;2024-01-25T12:55:42;4.60;99.90
17571;DHT22;8903;52.220;20.978;2024-01-25T12:58:08;4.50;99.90
17571;DHT22;8903;52.220;20.978;2024-01-25T13:00:34;4.50;99.90
17571;DHT22;8903;52.220;20.978;2024-01-25T13:03:00;4.40;99.90
17571;DHT22;8903;52.220;20.978;2024-01-25T13:05:29;4.40;99.90
17571;DHT22;8903;52.220;20.978;2024-01-25T13:07:55;4.30;99.90
17571;DHT22;8903;52.220;20.978;2024-01-25T13:10:21;4.30;99.90
17571;DHT22;8903;52.220;20.978;2024-01-25T13:12:47;4.30;99.90
17571;DHT22;8903;52.220;20.978;2024-01-25T13:15:12;4.30;99.90
17571;DHT22;8903;52.220;20.978;2024-01-25T13:17:38;4.30;99.90
17571;DHT22;8903;52.220;20.978;2024-01-25T13:20:05;4.20;99.90
17571;DHT22;8903;52.220;20.978;2024-01-25T13:22:34;4.20;99.90
17571;DHT22;8903;52.220;20.978;2024-01-25T13:25:04;4.20;99.90
17571;DHT22;8903;52.220;20.978;2024-01-25T13:27:31;4.10;99.90
17571;DHT22;8903;52.220;20.978;2024-01-25T13:29:57;4.20;99.90
17571;DHT22;8903;52.220;20.978;2024-01-25T13:32:23;4.20;99.90
17571;DHT22;8903;52.220;20.978;2024-01-25T13:34:49;4.20;99.90
17571;DHT22;8903;52.220;20.978;2024-01-25T13:37:15;4.20;99.90
17571;DHT22;8903;52.220;20.978;2024-01-25T13:39:41;4.10;99.90
17571;DHT22;8903;52.220;20.978;2024-01-25T13:42:07;4.20;99.90
17571;DHT22;8903;52.220;20.978;2024-01-25T13:44:33;4.10;99.90
17571;DHT22;8903;52.220;20.978;2024-01-25T13:47:01;4.10;99.90
17571;DHT22;8903;52.220;20.978;2024-01-25T13:49:38;4.10;99.90
17571;DHT22;8903;52.220;20.978;2024-01-25T13:52:04;4.10;99.90
17571;DHT22;8903;52.220;20.978;2024-01-25T13:54:33;4.10;99.90
17571;DHT22;8903;52.220;20.978;2024-01-25T13:57:00;4.10;99.90
17571;DHT22;8903;52.220;20.978;2024-01-25T13:59:26;4.10;99.90
17571;DHT22;8903;52.220;20.978;2024-01-25T14:01:52;4.10;99.90
17571;DHT22;8903;52.220;20.978;2024-01-25T14:04:18;4.00;99.90
17571;DHT22;8903;52.220;20.978;2024-01-25T14:06:44;4.00;99.90
17571;DHT22;8903;52.220;20.978;2024-01-25T14:09:09;4.00;99.90
17571;DHT22;8903;52.220;20.978;2024-01-25T14:11:35;4.10;99.90
17571;DHT22;8903;52.220;20.978;2024-01-25T14:14:01;4.00;99.90
17571;DHT22;8903;52.220;20.978;2024-01-25T14:16:27;4.00;99.90
17571;DHT22;8903;52.220;20.978;2024-01-25T14:18:53;4.00;99.90
17571;DHT22;8903;52.220;20.978;2024-01-25T14:21:23;3.90;99.90
17571;DHT22;8903;52.220;20.978;2024-01-25T14:23:49;3.90;99.90
17571;DHT22;8903;52.220;20.978;2024-01-25T14:26:14;3.90;99.90
17571;DHT22;8903;52.220;20.978;2024-01-25T14:28:40;3.90;99.90
17571;DHT22;8903;52.220;20.978;2024-01-25T14:31:06;3.90;99.90
17571;DHT22;8903;52.220;20.978;2024-01-25T14:33:31;3.90;99.90
17571;DHT22;8903;52.220;20.978;2024-01-25T14:35:57;3.90;99.90
17571;DHT22;8903;52.220;20.978;2024-01-25T14:38:23;3.90;99.90
17571;DHT22;8903;52.220;20.978;2024-01-25T14:40:49;3.90;99.90
17571;DHT22;8903;52.220;20.978;2024-01-25T14:43:15;3.80;99.90
17571;DHT22;8903;52.220;20.978;2024-01-25T14:45:41;3.80;99.90
17571;DHT22;8903;52.220;20.978;2024-01-25T14:48:06;3.80;99.90
17571;DHT22;8903;52.220;20.978;2024-01-25T14:50:32;3.90;99.90
17571;DHT22;8903;52.220;20.978;2024-01-25T14:52:58;3.90;99.90
17571;DHT22;8903;52.220;20.978;2024-01-25T14:55:24;3.90;99.90
17571;DHT22;8903;52.220;20.978;2024-01-25T14:57:50;4.00;99.90
17571;DHT22;8903;52.220;20.978;2024-01-25T15:00:16;3.90;99.90
17571;DHT22;8903;52.220;20.978;2024-01-25T15:02:48;3.90;99.90
17571;DHT22;8903;52.220;20.978;2024-01-25T15:05:17;3.90;99.90
17571;DHT22;8903;52.220;20.978;2024-01-25T15:07:55;3.90;99.90
17571;DHT22;8903;52.220;20.978;2024-01-25T15:10:22;3.90;99.90
17571;DHT22;8903;52.220;20.978;2024-01-25T15:12:47;3.80;99.90
17571;DHT22;8903;52.220;20.978;2024-01-25T15:15:14;3.80;99.90
17571;DHT22;8903;52.220;20.978;2024-01-25T15:17:40;3.80;99.90
17571;DHT22;8903;52.220;20.978;2024-01-25T15:20:06;3.80;99.90
17571;DHT22;8903;52.220;20.978;2024-01-25T15:22:42;3.80;99.90
17571;DHT22;8903;52.220;20.978;2024-01-25T15:25:11;3.80;99.90
17571;DHT22;8903;52.220;20.978;2024-01-25T15:27:38;3.80;99.90
17571;DHT22;8903;52.220;20.978;2024-01-25T15:30:04;3.70;99.90
17571;DHT22;8903;52.220;20.978;2024-01-25T15:32:35;3.80;99.90
17571;DHT22;8903;52.220;20.978;2024-01-25T15:35:09;3.80;99.90
17571;DHT22;8903;52.220;20.978;2024-01-25T15:37:35;3.80;99.90
17571;DHT22;8903;52.220;20.978;2024-01-25T15:40:03;3.80;99.90
17571;DHT22;8903;52.220;20.978;2024-01-25T15:42:36;3.90;99.90